Time;durP1;ratioP1;P1;durP2;ratioP2;P2;SDS_P1;SDS_P2;PMS_P1;PMS_P2;Temp;Humidity;BMP_temperature;BMP_pressure;BME280_temperature;BME280_humidity;BME280_pressure;Samples;Min_cycle;Max_cycle;Signal;HPM_P1;HPM_P2
2022/11/02 00:00:30;;;;;;;28.40;15.00;;;;;;;11.46;71.83;99267.52;103079;1298;99247;-68
2022/11/02 00:03:17;;;;;;;27.10;14.40;;;;;;;11.47;71.94;99266.06;103015;1304;109808;-69
2022/11/02 00:05:45;;;;;;;30.10;15.20;;;;;;;11.49;71.90;99264.47;103057;1296;97617;-68
2022/11/02 00:08:13;;;;;;;30.10;15.90;;;;;;;11.52;72.00;99268.17;103066;1297;99230;-67
2022/11/02 00:10:41;;;;;;;29.10;15.40;;;;;;;11.55;71.86;99266.38;103115;1297;112840;-69
2022/11/02 00:13:08;;;;;;;30.40;16.70;;;;;;;11.57;72.02;99265.31;103155;1296;99298;-68
2022/11/02 00:15:40;;;;;;;31.80;17.40;;;;;;;11.60;71.98;99262.77;103099;1304;108090;-68
2022/11/02 00:18:13;;;;;;;31.30;16.70;;;;;;;11.62;72.00;99259.39;102988;1297;99300;-68
2022/11/02 00:20:44;;;;;;;32.40;16.20;;;;;;;11.66;71.99;99260.95;103124;1302;99197;-69
2022/11/02 00:23:15;;;;;;;34.80;17.10;;;;;;;11.69;71.95;99260.52;103069;1296;112748;-68
2022/11/02 00:25:50;;;;;;;31.70;16.50;;;;;;;11.72;72.09;99260.66;103071;1303;99177;-68
2022/11/02 00:28:22;;;;;;;34.20;15.30;;;;;;;11.74;72.10;99260.31;103050;1300;108184;-67
2022/11/02 00:30:50;;;;;;;34.20;17.30;;;;;;;11.76;72.13;99261.58;103110;1297;96490;-67
2022/11/02 00:33:21;;;;;;;34.20;16.40;;;;;;;11.79;72.00;99263.51;103107;1290;99318;-68
2022/11/02 00:35:53;;;;;;;31.10;16.50;;;;;;;11.82;72.04;99257.83;103130;1304;112889;-68
2022/11/02 00:38:21;;;;;;;28.00;16.30;;;;;;;11.85;72.12;99258.48;103113;1294;99204;-68
2022/11/02 00:40:48;;;;;;;31.00;17.30;;;;;;;11.86;72.10;99260.16;103022;1298;108063;-67
2022/11/02 00:43:16;;;;;;;29.70;16.10;;;;;;;11.87;72.09;99259.39;103055;1302;99325;-68
2022/11/02 00:45:44;;;;;;;30.60;15.60;;;;;;;11.89;72.20;99258.70;103100;1297;99333;-68
2022/11/02 00:48:12;;;;;;;31.20;17.20;;;;;;;11.90;72.10;99255.56;103082;1296;112790;-68
2022/11/02 00:50:43;;;;;;;30.90;16.30;;;;;;;11.93;72.10;99260.38;103056;1296;100481;-68
2022/11/02 00:53:11;;;;;;;28.70;16.20;;;;;;;11.95;72.16;99256.83;103076;1291;108132;-69
2022/11/02 00:55:46;;;;;;;35.60;16.60;;;;;;;11.98;72.24;99259.48;103104;1303;99326;-69
2022/11/02 00:58:14;;;;;;;32.10;15.90;;;;;;;11.99;72.15;99257.23;103095;1303;99238;-68
2022/11/02 01:00:41;;;;;;;30.30;16.00;;;;;;;12.02;72.18;99255.11;103086;1296;113316;-68
2022/11/02 01:03:09;;;;;;;28.00;16.10;;;;;;;12.02;72.28;99250.06;103134;1297;99897;-70
2022/11/02 01:05:37;;;;;;;30.80;16.90;;;;;;;12.04;72.32;99246.94;103041;1304;108063;-69
2022/11/02 01:08:07;;;;;;;29.80;16.10;;;;;;;12.04;72.28;99248.37;103068;1304;99211;-68
2022/11/02 01:10:35;;;;;;;32.50;15.60;;;;;;;12.05;72.31;99245.42;103085;1304;96517;-68
2022/11/02 01:13:07;;;;;;;30.40;15.60;;;;;;;12.07;72.30;99250.41;103090;1297;113221;-68
2022/11/02 01:15:39;;;;;;;32.10;16.40;;;;;;;12.08;72.41;99250.89;103143;1297;99363;-67
2022/11/02 01:18:06;;;;;;;29.10;15.20;;;;;;;12.09;72.29;99254.40;103061;1296;108229;-68
2022/11/02 01:20:34;;;;;;;29.70;15.70;;;;;;;12.09;72.34;99253.14;103081;1304;99366;-68
2022/11/02 01:23:02;;;;;;;29.70;16.60;;;;;;;12.09;72.26;99252.79;103030;1297;99347;-68
2022/11/02 01:25:30;;;;;;;30.40;16.50;;;;;;;12.10;72.30;99249.88;103096;1297;112921;-68
2022/11/02 01:28:01;;;;;;;30.30;16.40;;;;;;;12.10;72.24;99247.70;102978;1296;96572;-69
2022/11/02 01:30:31;;;;;;;29.00;15.20;;;;;;;12.11;72.33;99245.85;103145;1296;108214;-67
2022/11/02 01:33:05;;;;;;;28.30;15.40;;;;;;;12.12;72.34;99247.63;103157;1296;99973;-68
2022/11/02 01:35:36;;;;;;;28.80;15.80;;;;;;;12.12;72.27;99247.07;103086;1296;99333;-68
2022/11/02 01:38:03;;;;;;;28.60;15.40;;;;;;;12.12;72.28;99246.33;103063;1303;113197;-69
2022/11/02 01:40:41;;;;;;;32.30;15.80;;;;;;;12.14;72.31;99247.30;103089;1303;99191;-68
2022/11/02 01:43:26;;;;;;;29.40;16.30;;;;;;;12.13;72.32;99247.67;103006;1296;108013;-67
2022/11/02 01:46:04;;;;;;;29.40;15.70;;;;;;;12.12;72.41;99240.63;103047;1297;99351;-69
2022/11/02 01:48:44;;;;;;;31.10;16.10;;;;;;;12.13;72.34;99239.56;103103;1298;97689;-68
2022/11/02 01:51:32;;;;;;;32.20;17.00;;;;;;;12.13;72.52;99241.27;103107;1305;113165;-68
2022/11/02 01:54:08;;;;;;;29.50;15.70;;;;;;;12.14;72.44;99245.87;103089;1301;96908;-68
2022/11/02 01:56:40;;;;;;;28.00;16.20;;;;;;;12.15;72.47;99245.92;103101;1298;107644;-67
2022/11/02 01:59:18;;;;;;;32.00;16.50;;;;;;;12.16;72.46;99245.99;103030;1304;99219;-69
2022/11/02 02:01:46;;;;;;;29.70;16.40;;;;;;;12.18;72.57;99245.87;103106;1294;99245;-67
2022/11/02 02:04:22;;;;;;;30.30;15.80;;;;;;;12.18;72.61;99245.52;103043;1296;112938;-69
2022/11/02 02:06:53;;;;;;;32.60;16.90;;;;;;;12.19;72.58;99247.89;103099;1297;99756;-69
2022/11/02 02:09:25;;;;;;;28.60;16.30;;;;;;;12.21;72.47;99248.11;103106;1296;107731;-68
2022/11/02 02:11:53;;;;;;;29.60;16.80;;;;;;;12.22;72.61;99246.63;103106;1303;99303;-68
2022/11/02 02:14:21;;;;;;;33.20;16.60;;;;;;;12.23;72.56;99244.05;103069;1298;99844;-69
2022/11/02 02:17:22;;;;;;;30.20;15.80;;;;;;;12.25;72.65;99242.14;103116;1296;112957;-68
2022/11/02 02:20:10;;;;;;;32.20;15.60;;;;;;;12.25;72.51;99244.98;103116;1296;96595;-68
2022/11/02 02:23:11;;;;;;;28.00;14.90;;;;;;;12.26;72.58;99245.46;103106;1298;107362;-68
2022/11/02 02:26:10;;;;;;;27.90;15.30;;;;;;;12.25;72.59;99243.55;103112;1303;99325;-68
2022/11/02 02:28:54;;;;;;;29.70;15.20;;;;;;;12.24;72.58;99243.84;103117;1297;99226;-68
2022/11/02 02:31:37;;;;;;;28.10;14.30;;;;;;;12.25;72.58;99246.63;103100;1308;113090;-68
2022/11/02 02:34:32;;;;;;;31.00;15.60;;;;;;;12.22;72.54;99247.88;103112;1301;99288;-68
2022/11/02 02:37:09;;;;;;;31.20;15.60;;;;;;;12.19;72.62;99243.83;103048;1287;108119;-68
2022/11/02 02:40:04;;;;;;;31.00;16.50;;;;;;;12.19;72.57;99245.28;103062;1297;99127;-68
2022/11/02 02:42:56;;;;;;;28.40;15.20;;;;;;;12.18;72.57;99243.55;103072;1304;99265;-68
2022/11/02 02:45:47;;;;;;;29.20;15.30;;;;;;;12.17;72.53;99245.44;103025;1297;112996;-68
2022/11/02 02:48:22;;;;;;;29.00;15.60;;;;;;;12.15;72.56;99245.59;103045;1303;96423;-68
2022/11/02 02:51:04;;;;;;;30.90;16.10;;;;;;;12.13;72.55;99249.81;103087;1297;107363;-66
2022/11/02 02:53:54;;;;;;;33.40;16.70;;;;;;;12.12;72.62;99255.72;103089;1303;99979;-65
2022/11/02 02:56:28;;;;;;;28.00;15.00;;;;;;;12.12;72.57;99261.61;103086;1296;99363;-68
2022/11/02 02:59:04;;;;;;;;;;;;;;;12.12;72.59;99259.50;103064;1297;112552;-67
2022/11/02 03:01:38;;;;;;;28.40;15.90;;;;;;;12.11;72.65;99260.64;103135;1296;97638;-68
2022/11/02 03:04:11;;;;;;;31.20;16.10;;;;;;;12.11;72.75;99257.98;103013;1297;107513;-69
2022/11/02 03:06:41;;;;;;;;;;;;;;;12.11;72.73;99258.33;103034;1297;99309;-68
2022/11/02 03:09:28;;;;;;;30.10;15.80;;;;;;;12.10;72.79;99259.66;103061;1295;99249;-68
2022/11/02 03:12:21;;;;;;;28.20;15.20;;;;;;;12.12;72.78;99260.05;103207;1297;113108;-68
2022/11/02 03:15:10;;;;;;;30.00;15.50;;;;;;;12.14;73.02;99261.13;103272;1294;99328;-70
2022/11/02 03:17:56;;;;;;;28.80;14.50;;;;;;;12.15;72.94;99264.08;103160;1301;108076;-68
2022/11/02 03:20:37;;;;;;;31.00;16.60;;;;;;;12.17;72.83;99267.95;103092;1297;99239;-68
2022/11/02 03:23:21;;;;;;;30.20;16.60;;;;;;;12.19;72.96;99270.83;103039;1297;98266;-67
2022/11/02 03:26:06;;;;;;;30.10;16.20;;;;;;;12.21;72.89;99270.69;103096;1296;113098;-68
2022/11/02 03:29:27;;;;;;;29.50;16.30;;;;;;;12.23;73.20;99271.62;103119;1304;99164;-68
2022/11/02 03:32:09;;;;;;;28.60;15.60;;;;;;;12.21;72.84;99271.39;102181;1312;108098;-70
2022/11/02 03:34:47;;;;;;;32.50;16.60;;;;;;;12.22;72.90;99275.77;103160;1305;99729;-68
2022/11/02 03:37:42;;;;;;;29.70;16.80;;;;;;;12.23;72.83;99270.58;103228;1300;99353;-68
2022/11/02 03:40:18;;;;;;;30.70;17.30;;;;;;;12.24;73.00;99277.23;103052;1299;113531;-68
2022/11/02 03:42:52;;;;;;;31.30;15.20;;;;;;;12.26;72.95;99277.43;103053;1300;99205;-68
2022/11/02 03:45:32;;;;;;;33.10;16.70;;;;;;;12.28;73.01;99276.39;103045;1304;106792;-68
2022/11/02 03:48:06;;;;;;;36.40;17.50;;;;;;;12.30;73.12;99279.26;102946;1294;99346;-67
2022/11/02 03:50:42;;;;;;;32.00;17.70;;;;;;;12.32;72.93;99277.38;103086;1295;99367;-68
2022/11/02 03:53:31;;;;;;;29.80;15.90;;;;;;;12.35;73.06;99281.41;103192;1298;113477;-68
2022/11/02 03:56:08;;;;;;;32.20;16.40;;;;;;;12.37;73.08;99278.04;103058;1303;99192;-69
2022/11/02 03:58:36;;;;;;;34.40;16.90;;;;;;;12.38;73.11;99281.69;103016;1297;107463;-69
2022/11/02 04:01:10;;;;;;;29.60;15.70;;;;;;;12.40;73.15;99280.65;103069;1297;99344;-69
2022/11/02 04:03:43;;;;;;;32.60;16.60;;;;;;;12.42;73.08;99276.79;103071;1298;99318;-69
2022/11/02 04:06:15;;;;;;;26.90;15.50;;;;;;;12.44;73.12;99275.40;103073;1296;112761;-68
2022/11/02 04:08:48;;;;;;;32.80;17.10;;;;;;;12.44;73.24;99276.25;103275;1300;99483;-68
2022/11/02 04:19:26;;;;;;;29.00;15.20;;;;;;;12.46;73.14;99281.98;103192;1296;99242;-69
2022/11/02 04:19:40;;;;;;;30.50;15.60;;;;;;;12.47;73.13;99280.28;103100;1297;113153;-67
2022/11/02 04:25:14;;;;;;;32.00;16.70;;;;;;;12.48;73.14;99274.83;103032;1304;108087;-66
2022/11/02 04:27:52;;;;;;;30.30;15.50;;;;;;;12.49;73.12;99277.66;103082;1299;99422;-68
2022/11/02 04:30:22;;;;;;;30.60;16.50;;;;;;;12.48;73.16;99283.23;102932;1307;99329;-68
2022/11/02 04:35:36;;;;;;;32.40;16.40;;;;;;;12.47;73.21;99281.16;103019;1303;97663;-68
2022/11/02 04:41:40;;;;;;;31.10;17.50;;;;;;;12.45;73.23;99283.10;103090;1304;99250;-69
2022/11/02 04:43:38;;;;;;;31.20;16.80;;;;;;;12.44;73.31;99283.40;102176;1296;1373651;-68
2022/11/02 04:46:06;;;;;;;29.00;16.20;;;;;;;12.43;73.15;99282.90;103005;1297;112737;-68
2022/11/02 04:48:33;;;;;;;32.60;17.20;;;;;;;12.43;73.20;99291.08;103076;1295;99242;-68
2022/11/02 04:51:01;;;;;;;31.60;17.70;;;;;;;12.43;73.20;99287.39;103120;1298;108180;-69
2022/11/02 04:53:29;;;;;;;34.00;17.50;;;;;;;12.41;73.23;99286.64;103180;1302;99320;-69
2022/11/02 04:55:57;;;;;;;30.70;15.80;;;;;;;12.40;73.30;99291.34;103068;1297;99217;-69
2022/11/02 04:58:25;;;;;;;34.20;17.40;;;;;;;12.37;73.24;99295.09;103134;1297;112704;-69
2022/11/02 05:00:53;;;;;;;31.70;18.70;;;;;;;12.33;73.25;99291.27;103107;1297;97917;-68
2022/11/02 05:03:21;;;;;;;32.10;16.90;;;;;;;12.33;73.23;99291.33;103053;1298;108131;-67
2022/11/02 05:05:55;;;;;;;33.60;17.60;;;;;;;12.31;73.30;99292.35;103112;1304;99319;-70
2022/11/02 05:08:22;;;;;;;33.80;17.90;;;;;;;12.30;73.33;99295.23;103125;1303;96636;-69
2022/11/02 05:10:58;;;;;;;28.90;16.00;;;;;;;12.30;73.36;99291.73;103248;1301;113176;-69
2022/11/02 05:13:27;;;;;;;35.20;19.20;;;;;;;12.28;73.46;99293.84;103131;1300;99339;-69
2022/11/02 05:15:59;;;;;;;33.40;18.70;;;;;;;12.25;73.38;99297.45;103137;1301;107947;-69
2022/11/02 05:18:29;;;;;;;34.20;18.70;;;;;;;12.25;73.35;99305.45;103020;1306;99325;-69
2022/11/02 05:20:59;;;;;;;39.40;20.10;;;;;;;12.24;73.27;99311.36;103089;1297;99264;-67
2022/11/02 05:23:29;;;;;;;33.30;18.50;;;;;;;12.23;73.28;99307.54;103066;1296;112955;-68
2022/11/02 05:26:02;;;;;;;30.90;18.40;;;;;;;12.22;73.46;99312.98;103026;1300;99026;-68
2022/11/02 05:28:34;;;;;;;31.00;18.10;;;;;;;12.20;73.47;99316.99;103080;1297;108057;-68
2022/11/02 05:31:06;;;;;;;35.90;20.90;;;;;;;12.19;73.74;99322.10;103118;1297;99250;-68
2022/11/02 05:33:37;;;;;;;34.30;20.10;;;;;;;12.17;73.46;99326.51;103034;1297;99311;-70
2022/11/02 05:36:05;;;;;;;39.20;21.60;;;;;;;12.16;73.36;99329.95;103062;1296;113123;-69
2022/11/02 05:38:36;;;;;;;35.40;20.80;;;;;;;12.15;73.43;99334.24;103071;1290;96462;-71
2022/11/02 05:41:09;;;;;;;34.10;21.60;;;;;;;12.16;73.42;99334.77;103105;1296;108110;-69
2022/11/02 05:43:39;;;;;;;38.40;20.50;;;;;;;12.17;73.55;99337.52;103110;1304;99339;-71
2022/11/02 05:46:07;;;;;;;34.50;20.20;;;;;;;12.17;73.60;99338.22;103173;1301;99226;-68
2022/11/02 05:48:35;;;;;;;33.90;18.20;;;;;;;12.16;73.50;99344.49;103083;1294;112167;-69
2022/11/02 05:51:06;;;;;;;37.50;19.50;;;;;;;12.16;73.51;99345.73;103054;1303;99369;-69
2022/11/02 05:53:37;;;;;;;32.90;17.90;;;;;;;12.17;73.48;99349.21;103121;1297;108098;-69
2022/11/02 05:56:10;;;;;;;34.20;17.80;;;;;;;12.18;73.64;99351.79;103085;1298;99694;-68
2022/11/02 05:58:37;;;;;;;34.90;18.90;;;;;;;12.20;73.49;99350.06;103183;1301;96696;-69
2022/11/02 06:01:12;;;;;;;34.00;18.10;;;;;;;12.21;73.46;99351.78;103104;1298;111719;-68
2022/11/02 06:03:40;;;;;;;35.90;19.00;;;;;;;12.22;73.64;99362.40;103236;1304;99207;-69
2022/11/02 06:06:12;;;;;;;34.40;19.10;;;;;;;12.21;73.58;99363.66;103116;1305;108056;-69
2022/11/02 06:08:42;;;;;;;34.30;19.00;;;;;;;12.21;73.57;99368.12;103093;1304;100099;-69
2022/11/02 06:11:16;;;;;;;34.40;18.80;;;;;;;12.21;73.57;99369.38;103140;1296;97514;-69
2022/11/02 06:13:50;;;;;;;31.30;18.90;;;;;;;12.21;73.74;99368.83;103090;1296;113821;-68
2022/11/02 06:16:17;;;;;;;31.50;18.90;;;;;;;12.22;73.56;99373.09;103055;1297;99261;-71
2022/11/02 06:18:50;;;;;;;33.80;19.30;;;;;;;12.20;73.61;99378.01;103039;1297;108049;-71
2022/11/02 06:21:18;;;;;;;31.60;18.80;;;;;;;12.19;73.54;99372.90;103047;1297;99323;-69
2022/11/02 06:23:50;;;;;;;34.40;19.40;;;;;;;12.20;73.80;99381.35;103097;1297;99312;-69
2022/11/02 06:26:18;;;;;;;34.00;18.60;;;;;;;12.20;73.60;99382.47;103081;1297;112460;-69
2022/11/02 06:28:46;;;;;;;35.60;20.70;;;;;;;12.21;73.66;99385.38;103104;1296;99275;-70
2022/11/02 06:31:16;;;;;;;32.70;19.10;;;;;;;12.24;73.70;99387.34;103177;1290;108102;-70
2022/11/02 06:33:44;;;;;;;35.30;18.90;;;;;;;12.23;73.70;99389.84;103170;1295;99227;-69
2022/11/02 06:36:15;;;;;;;32.40;19.40;;;;;;;12.25;73.80;99386.73;103249;1295;96474;-70
2022/11/02 06:38:44;;;;;;;35.10;19.90;;;;;;;12.24;73.70;99391.73;103179;1297;112918;-69
2022/11/02 06:41:16;;;;;;;36.80;19.90;;;;;;;12.23;73.79;99390.79;103195;1294;99350;-68
2022/11/02 06:43:44;;;;;;;35.60;19.80;;;;;;;12.20;73.82;99396.65;103293;1297;108111;-69
2022/11/02 06:46:17;;;;;;;32.50;19.20;;;;;;;12.19;73.77;99397.63;103318;1297;99252;-68
2022/11/02 06:48:47;;;;;;;32.60;17.70;;;;;;;12.22;73.78;99397.60;103274;1305;99108;-68
2022/11/02 06:51:15;;;;;;;32.30;18.10;;;;;;;12.25;74.00;99401.27;103182;1303;112221;-69
2022/11/02 06:53:43;;;;;;;31.90;18.20;;;;;;;12.29;73.89;99405.41;103659;1299;97170;-69
2022/11/02 06:56:13;;;;;;;34.80;19.10;;;;;;;12.32;73.86;99407.48;103159;1303;108100;-69
2022/11/02 06:58:42;;;;;;;36.30;19.20;;;;;;;12.35;73.80;99407.98;103388;1296;99390;-69
2022/11/02 07:01:14;;;;;;;31.40;17.80;;;;;;;12.40;73.84;99409.83;103029;1303;96566;-67
2022/11/02 07:03:45;;;;;;;33.50;18.90;;;;;;;12.43;73.79;99411.71;102917;1299;113055;-68
2022/11/02 07:06:13;;;;;;;35.90;19.80;;;;;;;12.47;73.78;99416.35;102906;1305;99824;-69
2022/11/02 07:08:41;;;;;;;37.30;20.40;;;;;;;12.50;73.71;99418.08;104152;1301;108151;-68
2022/11/02 07:11:14;;;;;;;33.70;19.80;;;;;;;12.53;73.80;99416.85;104109;1305;99344;-68
2022/11/02 07:13:43;;;;;;;34.20;19.60;;;;;;;12.57;73.84;99416.15;104637;1297;97181;-66
2022/11/02 07:16:12;;;;;;;34.60;19.20;;;;;;;12.60;73.78;99418.95;104110;1296;112719;-68
2022/11/02 07:18:40;;;;;;;36.50;19.60;;;;;;;12.63;73.91;99420.09;103551;1299;99406;-69
2022/11/02 07:21:12;;;;;;;33.80;18.70;;;;;;;12.66;73.82;99419.54;103015;1294;108356;-68
2022/11/02 07:23:40;;;;;;;30.30;17.70;;;;;;;12.68;73.80;99419.42;103098;1297;96639;-69
2022/11/02 07:26:10;;;;;;;32.10;17.90;;;;;;;12.68;73.80;99417.10;103117;1304;97940;-69
2022/11/02 07:28:38;;;;;;;31.90;17.90;;;;;;;12.70;73.75;99412.33;103128;1295;112738;-68
2022/11/02 07:31:06;;;;;;;34.20;18.10;;;;;;;12.73;73.74;99411.91;103172;1303;99030;-68
2022/11/02 07:33:37;;;;;;;30.50;17.20;;;;;;;12.77;73.75;99406.98;103143;1298;108044;-68
2022/11/02 07:36:08;;;;;;;32.20;17.50;;;;;;;12.76;73.77;99406.35;103157;1296;96553;-68
2022/11/02 07:38:35;;;;;;;31.50;17.30;;;;;;;12.76;73.78;99411.71;103144;1301;99332;-68
2022/11/02 07:41:05;;;;;;;34.20;18.30;;;;;;;12.79;73.82;99409.88;103115;1304;113188;-68
2022/11/02 07:43:33;;;;;;;36.50;17.90;;;;;;;12.83;73.90;99407.05;103151;1297;99725;-70
2022/11/02 07:46:06;;;;;;;29.20;15.90;;;;;;;12.88;73.91;99409.17;103126;1301;107342;-70
2022/11/02 07:48:37;;;;;;;31.70;18.10;;;;;;;12.91;73.88;99408.58;103151;1304;99782;-69
2022/11/02 07:51:06;;;;;;;31.10;17.80;;;;;;;12.94;73.91;99405.34;103116;1297;99225;-69
2022/11/02 07:53:36;;;;;;;31.10;16.90;;;;;;;12.98;73.82;99405.62;103168;1298;113091;-71
2022/11/02 07:56:08;;;;;;;32.10;18.30;;;;;;;12.99;73.86;99400.36;103128;1297;99275;-69
2022/11/02 07:58:39;;;;;;;37.60;19.10;;;;;;;13.04;73.90;99399.75;103247;1301;108116;-72
2022/11/02 08:01:07;;;;;;;33.00;18.50;;;;;;;13.08;73.76;99397.50;103125;1303;99353;-69
2022/11/02 08:03:38;;;;;;;33.20;18.30;;;;;;;13.11;73.76;99392.61;103187;1295;99235;-68
2022/11/02 08:06:09;;;;;;;35.30;18.50;;;;;;;13.17;73.82;99393.58;103048;1298;113056;-68
2022/11/02 08:08:37;;;;;;;32.70;17.90;;;;;;;13.24;73.85;99395.77;103082;1304;99351;-67
2022/11/02 08:11:25;;;;;;;31.40;17.70;;;;;;;13.26;73.74;99393.60;103113;1297;109975;-69
2022/11/02 08:13:52;;;;;;;32.10;17.80;;;;;;;13.32;73.88;99392.64;103118;1304;99312;-70
2022/11/02 08:16:20;;;;;;;30.90;17.10;;;;;;;13.37;73.91;99391.89;103220;1297;99323;-69
2022/11/02 08:19:00;;;;;;;31.60;19.00;;;;;;;13.43;73.87;99384.71;103187;1304;113118;-67
2022/11/02 08:21:28;;;;;;;33.30;17.10;;;;;;;13.47;73.87;99387.87;103103;1298;99327;-70
2022/11/02 08:23:56;;;;;;;31.10;17.10;;;;;;;13.51;73.93;99384.23;103078;1303;108133;-70
2022/11/02 08:26:27;;;;;;;32.50;16.90;;;;;;;13.56;73.79;99379.00;103087;1300;99296;-67
2022/11/02 08:28:55;;;;;;;29.80;16.30;;;;;;;13.62;73.90;99381.43;103128;1298;97631;-69
2022/11/02 08:31:23;;;;;;;31.30;17.50;;;;;;;13.72;73.94;99379.90;103040;1298;113568;-67
2022/11/02 08:33:52;;;;;;;30.60;17.40;;;;;;;13.88;73.93;99378.55;103135;1304;99309;-69
2022/11/02 08:36:24;;;;;;;31.30;15.90;;;;;;;14.06;73.84;99373.76;103087;1303;107510;-68
2022/11/02 08:38:52;;;;;;;30.90;16.90;;;;;;;14.21;74.00;99375.67;103075;1297;99340;-69
2022/11/02 08:41:24;;;;;;;34.40;17.10;;;;;;;14.40;73.80;99376.81;103185;1298;99327;-69
2022/11/02 08:43:51;;;;;;;30.20;15.70;;;;;;;14.63;73.78;99378.14;103131;1303;112131;-69
2022/11/02 08:46:19;;;;;;;27.40;14.60;;;;;;;14.84;73.92;99375.84;103141;1303;99390;-68
2022/11/02 08:48:51;;;;;;;29.60;15.30;;;;;;;15.01;73.58;99376.16;103112;1304;107756;-69
2022/11/02 08:51:19;;;;;;;34.20;15.60;;;;;;;15.09;73.47;99374.81;103115;1303;99220;-69
2022/11/02 08:53:50;;;;;;;31.00;15.00;;;;;;;15.14;73.31;99379.34;103170;1297;99228;-69
2022/11/02 08:56:21;;;;;;;29.10;15.50;;;;;;;15.20;73.42;99375.23;103084;1299;111695;-68
2022/11/02 08:58:49;;;;;;;29.60;15.00;;;;;;;15.42;73.57;99378.20;103125;1298;99370;-69
2022/11/02 09:01:17;;;;;;;34.30;16.00;;;;;;;15.45;73.27;99377.20;103223;1296;107612;-69
2022/11/02 09:03:45;;;;;;;26.70;13.00;;;;;;;15.40;73.07;99380.00;103097;1300;99223;-71
2022/11/02 09:06:15;;;;;;;28.10;13.60;;;;;;;15.37;73.14;99375.58;103101;1296;99258;-68
2022/11/02 09:08:42;;;;;;;25.40;14.30;;;;;;;15.69;73.40;99375.93;103118;1297;112122;-73
2022/11/02 09:11:12;;;;;;;25.40;13.20;;;;;;;16.09;73.38;99378.02;103094;1301;96921;-69
2022/11/02 09:13:41;;;;;;;27.20;13.60;;;;;;;16.53;72.59;99381.48;103125;1301;107789;-69
2022/11/02 09:16:10;;;;;;;26.30;13.50;;;;;;;16.92;73.01;99375.71;103022;1304;99232;-69
2022/11/02 09:18:37;;;;;;;28.00;12.00;;;;;;;16.98;72.69;99376.44;104681;1301;96864;-68
2022/11/02 09:21:06;;;;;;;23.00;12.10;;;;;;;16.79;72.49;99377.16;103542;1294;112775;-68
2022/11/02 09:23:33;;;;;;;24.80;14.30;;;;;;;16.55;72.55;99381.13;103129;1303;99185;-68
2022/11/02 09:26:02;;;;;;;23.10;12.60;;;;;;;16.40;72.47;99377.86;103436;1296;108022;-68
2022/11/02 09:28:30;;;;;;;25.40;12.60;;;;;;;16.35;72.06;99373.17;104736;1293;99196;-68
2022/11/02 09:30:58;;;;;;;25.20;12.70;;;;;;;16.33;72.59;99371.85;103302;1301;99288;-68
2022/11/02 09:33:31;;;;;;;24.60;12.40;;;;;;;16.50;72.72;99371.89;103115;1305;113166;-67
2022/11/02 09:36:06;;;;;;;27.50;12.70;;;;;;;16.63;72.15;99369.48;103087;1304;100779;-69
2022/11/02 09:38:34;;;;;;;28.30;14.00;;;;;;;16.78;72.46;99367.20;103077;1297;108090;-69
2022/11/02 09:41:21;;;;;;;29.20;12.60;;;;;;;16.97;72.49;99367.45;103076;1305;99311;-69
2022/11/02 09:44:09;;;;;;;27.30;13.40;;;;;;;17.13;72.47;99364.53;103107;1295;99223;-70
2022/11/02 09:46:43;;;;;;;28.80;13.40;;;;;;;17.31;72.46;99361.19;103138;1304;113154;-70
2022/11/02 09:49:18;;;;;;;26.40;11.90;;;;;;;17.56;72.39;99358.09;103165;1298;99015;-69
2022/11/02 09:51:53;;;;;;;23.40;11.90;;;;;;;17.74;72.03;99359.57;103188;1297;106736;-69
2022/11/02 09:54:37;;;;;;;25.00;11.20;;;;;;;17.84;71.81;99360.70;103130;1297;99344;-69
2022/11/02 09:57:15;;;;;;;23.80;12.20;;;;;;;17.74;70.81;99362.02;103150;1296;99236;-69
2022/11/02 09:59:43;;;;;;;22.60;10.50;;;;;;;17.66;71.45;99363.59;102986;1303;112535;-70
2022/11/02 10:02:26;;;;;;;22.50;10.60;;;;;;;17.62;71.08;99362.56;103055;1306;99224;-69
2022/11/02 10:05:12;;;;;;;21.60;11.80;;;;;;;17.53;70.90;99361.56;103028;1296;108143;-70
2022/11/02 10:08:04;;;;;;;24.80;12.50;;;;;;;17.51;71.44;99357.33;103001;1294;99222;-70
2022/11/02 10:10:36;;;;;;;23.50;11.20;;;;;;;17.55;71.25;99355.29;103108;1304;99299;-69
2022/11/02 10:13:13;;;;;;;27.10;11.10;;;;;;;17.59;71.03;99355.10;103135;1304;112739;-69
2022/11/02 10:15:54;;;;;;;21.20;10.50;;;;;;;17.63;71.05;99356.83;103122;1303;99209;-70
2022/11/02 10:18:29;;;;;;;24.50;11.90;;;;;;;17.63;70.72;99360.64;103147;1297;107487;-71
2022/11/02 10:21:04;;;;;;;24.70;10.80;;;;;;;17.53;70.84;99355.64;103128;1297;99249;-69
2022/11/02 10:23:47;;;;;;;24.50;11.00;;;;;;;17.45;70.52;99357.86;103114;1304;99226;-69
2022/11/02 10:26:22;;;;;;;20.00;9.60;;;;;;;17.40;70.49;99360.27;103172;1298;112811;-69
2022/11/02 10:29:02;;;;;;;24.80;9.50;;;;;;;17.41;70.55;99358.59;103156;1304;99273;-69
2022/11/02 10:31:34;;;;;;;21.60;9.60;;;;;;;17.44;70.02;99357.21;103146;1296;107084;-67
2022/11/02 10:34:25;;;;;;;20.20;8.70;;;;;;;17.51;70.36;99353.67;103153;1299;99442;-68
2022/11/02 10:37:01;;;;;;;23.90;8.90;;;;;;;17.58;70.13;99347.63;103149;1304;99905;-68
2022/11/02 10:39:59;;;;;;;21.30;9.20;;;;;;;17.68;69.41;99346.30;103137;1300;112546;-69
2022/11/02 10:42:39;;;;;;;20.60;9.10;;;;;;;17.77;69.83;99344.02;103125;1304;99029;-69
2022/11/02 10:45:33;;;;;;;28.30;11.60;;;;;;;17.89;69.72;99336.94;103092;1304;107690;-69
2022/11/02 10:48:35;;;;;;;20.50;8.30;;;;;;;17.99;69.56;99335.92;103119;1301;99778;-72
2022/11/02 10:51:11;;;;;;;20.00;8.10;;;;;;;18.04;69.45;99342.09;103082;1303;99350;-68
2022/11/02 10:53:47;;;;;;;23.40;9.00;;;;;;;18.06;69.12;99342.25;103110;1295;112586;-70
2022/11/02 10:56:34;;;;;;;20.00;8.70;;;;;;;18.04;69.22;99335.86;103110;1297;99343;-68
2022/11/02 10:59:19;;;;;;;19.10;8.80;;;;;;;18.07;69.34;99334.11;103123;1303;107922;-69
2022/11/02 11:02:09;;;;;;;19.00;8.30;;;;;;;18.16;69.24;99333.21;103144;1303;97023;-64
2022/11/02 11:04:37;;;;;;;16.50;5.90;;;;;;;18.26;69.27;99332.17;103047;1293;99947;-68
2022/11/02 11:07:18;;;;;;;18.80;6.50;;;;;;;18.31;69.06;99330.63;103142;1303;113161;-71
2022/11/02 11:09:55;;;;;;;14.90;6.70;;;;;;;18.34;68.82;99322.77;103076;1304;98488;-70
2022/11/02 11:12:39;;;;;;;16.20;6.80;;;;;;;18.32;68.52;99326.63;103112;1298;107184;-70
2022/11/02 11:15:27;;;;;;;14.20;6.10;;;;;;;18.27;68.52;99318.41;103163;1304;99365;-69
2022/11/02 11:18:18;;;;;;;17.30;6.60;;;;;;;18.24;68.63;99322.52;103133;1305;99358;-69
2022/11/02 11:21:09;;;;;;;14.40;6.40;;;;;;;18.14;68.39;99320.31;103087;1303;113544;-69
2022/11/02 11:23:37;;;;;;;20.30;8.20;;;;;;;18.01;68.04;99319.94;103126;1303;99248;-70
2022/11/02 11:26:29;;;;;;;19.50;6.90;;;;;;;17.87;67.74;99318.48;103097;1303;107095;-69
2022/11/02 11:28:58;;;;;;;15.10;6.30;;;;;;;17.77;67.59;99319.83;103141;1305;99292;-68
2022/11/02 11:31:29;;;;;;;16.40;6.70;;;;;;;17.69;67.54;99319.66;103150;1300;99300;-69
2022/11/02 11:34:01;;;;;;;16.20;5.80;;;;;;;17.70;67.40;99322.62;103125;1304;113313;-69
2022/11/02 11:36:38;;;;;;;17.10;6.00;;;;;;;17.76;67.29;99315.23;103140;1298;99246;-68
2022/11/02 11:39:25;;;;;;;18.00;6.10;;;;;;;17.83;67.21;99316.33;103112;1298;108159;-68
2022/11/02 11:41:52;;;;;;;16.70;6.70;;;;;;;17.77;67.23;99316.15;103112;1305;100021;-68
2022/11/02 11:44:25;;;;;;;15.90;5.90;;;;;;;17.64;66.83;99315.73;103148;1303;99358;-69
2022/11/02 11:46:58;;;;;;;18.90;6.70;;;;;;;17.52;66.82;99318.11;103140;1301;113080;-67
2022/11/02 11:49:34;;;;;;;16.80;6.20;;;;;;;17.39;66.70;99315.23;103168;1303;99227;-69
2022/11/02 11:52:30;;;;;;;16.90;6.70;;;;;;;17.24;66.78;99322.22;103134;1303;106346;-68